createdAt,value
2023-09-02T00:00:18.620Z,90161.59
2023-09-02T00:02:44.923Z,90165.78
2023-09-02T00:05:11.291Z,90168.06
2023-09-02T00:07:37.555Z,90163.69
2023-09-02T00:10:03.911Z,90161.84
2023-09-02T00:12:30.372Z,90163.69
2023-09-02T00:14:56.644Z,90164.44
2023-09-02T00:17:23.719Z,90168.38
2023-09-02T00:19:50.008Z,90173.09
2023-09-02T00:22:16.293Z,90171.69
2023-09-02T00:27:30.924Z,90161.94
2023-09-02T00:29:57.211Z,90164.03
2023-09-02T00:32:23.615Z,90163.81
2023-09-02T00:34:49.918Z,90155.25
2023-09-02T00:37:16.205Z,90154.00
2023-09-02T00:39:42.481Z,90158.78
2023-09-02T00:42:08.744Z,90152.13
2023-09-02T00:44:35.006Z,90145.22
2023-09-02T00:47:01.283Z,90153.22
2023-09-02T00:49:27.547Z,90153.47
2023-09-02T00:51:53.821Z,90153.34
2023-09-02T00:54:20.095Z,90156.25
2023-09-02T00:56:46.372Z,90160.47
2023-09-02T00:59:12.664Z,90161.59
2023-09-02T01:01:38.929Z,90158.91
2023-09-02T01:04:05.227Z,90161.84
2023-09-02T01:06:31.510Z,90162.66
2023-09-02T01:08:57.825Z,90163.94
2023-09-02T01:11:24.120Z,90163.50
2023-09-02T01:13:50.442Z,90158.63
2023-09-02T01:16:16.758Z,90161.34
2023-09-02T01:18:43.057Z,90164.13
2023-09-02T01:21:09.314Z,90161.41
2023-09-02T01:23:35.576Z,90167.50
2023-09-02T01:26:01.848Z,90170.44
2023-09-02T01:28:28.168Z,90163.19
2023-09-02T01:30:54.528Z,90171.34
2023-09-02T01:33:20.827Z,90180.28
2023-09-02T01:35:47.174Z,90177.34
2023-09-02T01:38:13.585Z,90165.38
2023-09-02T01:40:39.879Z,90174.06
2023-09-02T01:43:06.185Z,90178.50
2023-09-02T01:45:32.509Z,90176.28
2023-09-02T01:47:58.957Z,90174.72
2023-09-02T01:50:25.418Z,90174.81
2023-09-02T01:52:51.690Z,90169.97
2023-09-02T01:55:17.986Z,90170.59
2023-09-02T01:57:44.290Z,90174.94
2023-09-02T02:00:10.590Z,90172.22
2023-09-02T02:02:36.942Z,90164.63
2023-09-02T02:05:03.224Z,90170.59
2023-09-02T02:07:29.500Z,90164.53
2023-09-02T02:09:56.112Z,90172.16
2023-09-02T02:12:22.483Z,90171.31
2023-09-02T02:14:48.833Z,90166.44
2023-09-02T02:17:15.188Z,90171.88
2023-09-02T02:19:41.451Z,90166.13
2023-09-02T02:22:07.710Z,90171.88
2023-09-02T02:24:34.051Z,90168.25
2023-09-02T02:27:00.333Z,90164.56
2023-09-02T02:29:26.601Z,90166.38
2023-09-02T02:31:52.909Z,90166.41
2023-09-02T02:34:19.195Z,90164.50
2023-09-02T02:36:45.464Z,90159.84
2023-09-02T02:39:11.752Z,90160.97
2023-09-02T02:41:38.036Z,90157.03
2023-09-02T02:44:04.312Z,90151.75
2023-09-02T02:46:30.566Z,90158.28
2023-09-02T02:48:56.823Z,90159.22
2023-09-02T02:51:23.087Z,90161.75
2023-09-02T02:53:49.353Z,90161.44
2023-09-02T02:56:15.621Z,90164.13
2023-09-02T02:58:41.909Z,90168.03
2023-09-02T03:01:08.260Z,90161.59
2023-09-02T03:03:34.614Z,90163.03
2023-09-02T03:06:00.896Z,90163.59
2023-09-02T03:08:27.197Z,90167.50
2023-09-02T03:10:53.485Z,90161.44
2023-09-02T03:13:19.769Z,90159.44
2023-09-02T03:15:46.045Z,90153.06
2023-09-02T03:18:12.335Z,90154.31
2023-09-02T03:20:38.599Z,90152.78
2023-09-02T03:23:04.868Z,90156.00
2023-09-02T03:25:31.152Z,90164.47
2023-09-02T03:27:57.405Z,90168.91
2023-09-02T03:30:23.661Z,90159.69
2023-09-02T03:32:50.033Z,90165.00
2023-09-02T03:35:16.414Z,90163.38
2023-09-02T03:37:42.725Z,90159.88
2023-09-02T03:40:09.003Z,90156.28
2023-09-02T03:42:35.278Z,90157.78
2023-09-02T03:45:01.537Z,90159.69
2023-09-02T03:47:27.896Z,90153.72
2023-09-02T03:49:54.261Z,90149.06
2023-09-02T03:52:20.528Z,90150.16
2023-09-02T03:54:46.788Z,90148.13
2023-09-02T03:57:13.045Z,90150.56
2023-09-02T03:59:39.305Z,90154.81
2023-09-02T04:02:05.556Z,90156.63
2023-09-02T04:04:31.833Z,90151.41
2023-09-02T04:06:58.114Z,90150.59
2023-09-02T04:09:24.429Z,90149.63
2023-09-02T04:11:50.689Z,90148.22
2023-09-02T04:14:36.946Z,90150.44
2023-09-02T04:17:18.995Z,90147.03
2023-09-02T04:19:45.274Z,90142.22
2023-09-02T04:22:11.538Z,90142.28
2023-09-02T04:24:37.798Z,90146.84
2023-09-02T04:27:04.064Z,90154.78
2023-09-02T04:29:30.340Z,90152.56
2023-09-02T04:31:59.092Z,90161.25
2023-09-02T04:34:25.639Z,90156.81
2023-09-02T04:36:51.992Z,90165.09
2023-09-02T04:39:18.302Z,90167.91
2023-09-02T04:41:44.580Z,90173.09
2023-09-02T04:44:10.894Z,90177.22
2023-09-02T04:46:37.209Z,90177.00
2023-09-02T04:49:03.526Z,90177.03
2023-09-02T04:51:29.823Z,90173.03
2023-09-02T04:53:56.121Z,90178.31
2023-09-02T04:56:22.429Z,90173.41
2023-09-02T04:58:49.030Z,90172.13
2023-09-02T05:01:15.333Z,90180.06
2023-09-02T05:03:41.628Z,90178.38
2023-09-02T05:06:07.941Z,90171.31
2023-09-02T05:08:34.274Z,90178.72
2023-09-02T05:11:00.606Z,90183.19
2023-09-02T05:13:26.891Z,90184.94
2023-09-02T05:15:53.245Z,90181.75
2023-09-02T05:18:19.593Z,90187.41
2023-09-02T05:20:47.707Z,90188.34
2023-09-02T05:23:15.122Z,90189.09
2023-09-02T05:25:41.429Z,90186.06
2023-09-02T05:28:07.697Z,90189.00
2023-09-02T05:30:34.026Z,90195.13
2023-09-02T05:33:00.396Z,90192.44
2023-09-02T05:35:26.694Z,90195.88
2023-09-02T05:37:52.971Z,90195.88
2023-09-02T05:40:19.269Z,90195.00
2023-09-02T05:42:45.606Z,90191.97
2023-09-02T05:45:11.871Z,90197.34
2023-09-02T05:47:38.148Z,90198.41
2023-09-02T05:50:04.443Z,90194.47
2023-09-02T05:52:30.733Z,90201.41
2023-09-02T05:54:57.039Z,90202.03
2023-09-02T05:57:23.355Z,90208.13
2023-09-02T05:59:49.620Z,90213.06
2023-09-02T06:02:15.890Z,90210.00
2023-09-02T06:04:42.159Z,90210.03
2023-09-02T06:07:08.428Z,90208.72
2023-09-02T06:09:34.704Z,90206.75
2023-09-02T06:12:00.974Z,90216.59
2023-09-02T06:14:27.248Z,90222.59
2023-09-02T06:16:53.537Z,90227.34
2023-09-02T06:19:19.867Z,90229.53
2023-09-02T06:21:46.159Z,90233.97
2023-09-02T06:24:12.436Z,90236.28
2023-09-02T06:26:38.716Z,90237.56
2023-09-02T06:29:05.485Z,90234.50
2023-09-02T06:31:31.770Z,90235.41
2023-09-02T06:33:58.051Z,90232.06
2023-09-02T06:36:24.316Z,90233.31
2023-09-02T06:38:50.601Z,90232.91
2023-09-02T06:41:16.975Z,90237.19
2023-09-02T06:43:43.252Z,90232.25
2023-09-02T06:46:09.518Z,90238.81
2023-09-02T06:48:35.812Z,90246.63
2023-09-02T06:51:02.096Z,90247.94
2023-09-02T06:53:28.362Z,90248.41
2023-09-02T06:55:54.631Z,90241.75
2023-09-02T06:58:20.897Z,90249.34
2023-09-02T07:00:49.473Z,90247.94
2023-09-02T07:03:15.957Z,90247.34
2023-09-02T07:05:42.365Z,90252.09
2023-09-02T07:08:09.088Z,90245.00
2023-09-02T07:10:35.376Z,90253.00
2023-09-02T07:13:01.641Z,90247.69
2023-09-02T07:15:27.914Z,90253.56
2023-09-02T07:17:54.230Z,90247.97
2023-09-02T07:20:20.530Z,90250.03
2023-09-02T07:22:46.793Z,90245.13
2023-09-02T07:25:13.056Z,90253.22
2023-09-02T07:27:39.363Z,90257.47
2023-09-02T07:30:05.613Z,90258.59
2023-09-02T07:32:31.879Z,90259.22
2023-09-02T07:34:58.141Z,90258.41
2023-09-02T07:37:24.431Z,90255.00
2023-09-02T07:39:50.723Z,90257.34
2023-09-02T07:42:16.993Z,90260.81
2023-09-02T07:44:43.261Z,90257.84
2023-09-02T07:47:09.546Z,90265.34
2023-09-02T07:49:35.806Z,90265.41
2023-09-02T07:52:02.070Z,90272.56
2023-09-02T07:54:28.335Z,90276.25
2023-09-02T07:56:54.612Z,90270.22
2023-09-02T07:59:22.580Z,90267.13
2023-09-02T08:01:48.870Z,90268.75
2023-09-02T08:04:15.177Z,90268.53
2023-09-02T08:06:41.469Z,90267.16
2023-09-02T08:09:07.734Z,90268.44
2023-09-02T08:11:34.007Z,90267.97
2023-09-02T08:14:00.276Z,90265.31
2023-09-02T08:16:26.550Z,90264.97
2023-09-02T08:18:52.822Z,90267.97
2023-09-02T08:21:19.103Z,90262.88
2023-09-02T08:23:45.380Z,90262.69
2023-09-02T08:26:11.641Z,90255.19
2023-09-02T08:28:37.916Z,90258.91
2023-09-02T08:31:04.248Z,90256.50
2023-09-02T08:33:30.530Z,90254.44
2023-09-02T08:35:56.799Z,90254.03
2023-09-02T08:38:23.075Z,90253.53
2023-09-02T08:40:49.340Z,90255.28
2023-09-02T08:43:15.681Z,90258.06
2023-09-02T08:45:42.115Z,90257.31
2023-09-02T08:48:08.433Z,90251.41
2023-09-02T08:50:34.723Z,90254.72
2023-09-02T08:53:00.979Z,90254.09
2023-09-02T08:55:27.238Z,90245.72
2023-09-02T08:57:53.552Z,90248.34
2023-09-02T09:00:19.836Z,90245.59
2023-09-02T09:02:46.149Z,90239.56
2023-09-02T09:05:12.500Z,90234.81
2023-09-02T09:07:38.780Z,90228.53
2023-09-02T09:10:05.037Z,90226.50
2023-09-02T09:12:31.294Z,90231.47
2023-09-02T09:14:57.565Z,90225.03
2023-09-02T09:17:23.869Z,90217.84
2023-09-02T09:19:50.210Z,90221.81
2023-09-02T09:22:16.493Z,90220.63
2023-09-02T09:24:42.759Z,90221.00
2023-09-02T09:27:09.014Z,90220.41
2023-09-02T09:29:35.284Z,90219.78
2023-09-02T09:32:01.568Z,90215.19
2023-09-02T09:34:27.854Z,90218.22
2023-09-02T09:36:54.126Z,90218.78
2023-09-02T09:39:20.402Z,90211.06
2023-09-02T09:41:46.680Z,90216.94
2023-09-02T09:44:13.048Z,90219.00
2023-09-02T09:46:39.318Z,90206.91
2023-09-02T09:49:05.598Z,90212.44
2023-09-02T09:51:31.944Z,90209.59
2023-09-02T09:53:58.206Z,90204.97
2023-09-02T09:56:24.480Z,90204.78
2023-09-02T09:58:50.761Z,90207.09
2023-09-02T10:01:17.066Z,90210.88
2023-09-02T10:03:43.322Z,90201.84
2023-09-02T10:06:09.631Z,90203.38
2023-09-02T10:08:35.929Z,90201.94
2023-09-02T10:11:02.206Z,90200.53
2023-09-02T10:13:28.464Z,90195.84
2023-09-02T10:15:54.808Z,90195.50
2023-09-02T10:18:21.127Z,90197.78
2023-09-02T10:20:47.431Z,90188.56
2023-09-02T10:23:13.705Z,90192.03
2023-09-02T10:25:39.968Z,90191.22
2023-09-02T10:28:06.236Z,90186.00
2023-09-02T10:30:33.878Z,90180.66
2023-09-02T10:33:00.442Z,90195.63
2023-09-02T10:35:26.717Z,90187.13
2023-09-02T10:37:52.983Z,90183.78
2023-09-02T10:40:19.260Z,90189.00
2023-09-02T10:42:45.553Z,90193.34
2023-09-02T10:45:11.827Z,90183.38
2023-09-02T10:47:38.124Z,90191.66
2023-09-02T10:50:04.397Z,90192.94
2023-09-02T10:52:30.653Z,90195.97
2023-09-02T10:54:56.913Z,90196.31
2023-09-02T10:57:23.184Z,90203.41
2023-09-02T10:59:49.441Z,90203.28
2023-09-02T11:02:15.760Z,90197.91
2023-09-02T11:04:44.622Z,90195.59
2023-09-02T11:07:11.438Z,90184.00
2023-09-02T11:09:37.742Z,90201.53
2023-09-02T11:12:03.994Z,90197.25
2023-09-02T11:14:30.275Z,90202.94
2023-09-02T11:16:56.585Z,90196.22
2023-09-02T11:19:22.891Z,90198.06
2023-09-02T11:21:49.154Z,90185.09
2023-09-02T11:24:15.441Z,90193.34
2023-09-02T11:26:41.700Z,90191.22
2023-09-02T11:29:07.998Z,90192.00
2023-09-02T11:31:34.268Z,90192.94
2023-09-02T11:34:00.522Z,90195.75
2023-09-02T11:36:26.793Z,90194.09
2023-09-02T11:38:53.064Z,90189.03
2023-09-02T11:41:19.339Z,90189.34
2023-09-02T11:43:45.601Z,90191.56
2023-09-02T11:46:11.931Z,90175.31
2023-09-02T11:48:38.194Z,90193.66
2023-09-02T11:51:04.470Z,90192.25
2023-09-02T11:53:30.729Z,90188.84
2023-09-02T11:55:56.991Z,90192.41
2023-09-02T11:58:23.258Z,90195.88
2023-09-02T12:00:49.539Z,90200.72
2023-09-02T12:03:15.905Z,90193.94
2023-09-02T12:05:42.244Z,90192.22
2023-09-02T12:08:08.524Z,90190.16
2023-09-02T12:10:34.792Z,90187.19
2023-09-02T12:13:01.067Z,90187.63
2023-09-02T12:15:27.329Z,90181.63
2023-09-02T12:17:53.623Z,90192.19
2023-09-02T12:20:19.883Z,90193.78
2023-09-02T12:22:46.151Z,90186.28
2023-09-02T12:25:12.411Z,90188.81
2023-09-02T12:27:41.061Z,90193.91
2023-09-02T12:30:08.170Z,90189.81
2023-09-02T12:32:34.463Z,90188.06
2023-09-02T12:35:00.783Z,90190.63
2023-09-02T12:37:27.061Z,90185.59
2023-09-02T12:39:53.332Z,90178.78
2023-09-02T12:42:19.605Z,90179.81
2023-09-02T12:44:45.857Z,90182.78
2023-09-02T12:47:12.112Z,90189.47
2023-09-02T12:49:38.385Z,90190.69
2023-09-02T12:52:04.683Z,90180.28
2023-09-02T12:54:30.943Z,90184.16
2023-09-02T12:56:57.219Z,90176.88
2023-09-02T12:59:23.498Z,90184.94
2023-09-02T13:01:49.803Z,90174.56
2023-09-02T13:04:16.072Z,90172.91
2023-09-02T13:06:42.351Z,90171.72
2023-09-02T13:09:08.630Z,90174.31
2023-09-02T13:11:34.900Z,90171.97
2023-09-02T13:14:01.167Z,90174.75
2023-09-02T13:16:27.481Z,90174.00
2023-09-02T13:18:53.779Z,90172.91
2023-09-02T13:21:20.058Z,90173.19
2023-09-02T13:23:46.320Z,90172.84
2023-09-02T13:26:12.577Z,90174.00
2023-09-02T13:28:38.834Z,90173.06
2023-09-02T13:31:05.161Z,90176.50
2023-09-02T13:33:31.463Z,90187.13
2023-09-02T13:35:57.751Z,90185.38
2023-09-02T13:38:24.027Z,90188.66
2023-09-02T13:40:50.424Z,90191.34
2023-09-02T13:43:17.076Z,90192.22
2023-09-02T13:45:43.540Z,90192.31
2023-09-02T13:48:09.916Z,90197.28
2023-09-02T13:50:36.238Z,90195.31
2023-09-02T13:53:02.517Z,90200.69
2023-09-02T13:55:28.849Z,90197.75
2023-09-02T13:57:55.136Z,90196.50
2023-09-02T14:00:21.397Z,90188.28
2023-09-02T14:02:47.695Z,90186.81
2023-09-02T14:05:14.013Z,90184.81
2023-09-02T14:07:40.285Z,90189.50
2023-09-02T14:10:06.557Z,90185.44
2023-09-02T14:12:32.829Z,90186.47
2023-09-02T14:14:59.109Z,90179.66
2023-09-02T14:17:25.374Z,90187.88
2023-09-02T14:19:52.953Z,90178.97
2023-09-02T14:22:19.243Z,90184.53
2023-09-02T14:24:45.492Z,90182.56
2023-09-02T14:27:11.856Z,90180.13
2023-09-02T14:29:38.197Z,90183.41
2023-09-02T14:32:04.469Z,90180.41
2023-09-02T14:34:30.759Z,90177.91
2023-09-02T14:36:57.037Z,90181.63
2023-09-02T14:39:23.355Z,90177.53
2023-09-02T14:41:49.707Z,90182.44
2023-09-02T14:44:15.977Z,90188.50
2023-09-02T14:46:42.282Z,90187.88
2023-09-02T14:49:08.573Z,90185.47
2023-09-02T14:51:34.841Z,90188.94
2023-09-02T14:54:01.181Z,90187.03
2023-09-02T14:56:27.469Z,90191.25
2023-09-02T14:58:53.740Z,90190.09
2023-09-02T15:01:20.045Z,90189.97
2023-09-02T15:03:46.388Z,90182.09
2023-09-02T15:06:12.896Z,90173.69
2023-09-02T15:08:39.517Z,90179.16
2023-09-02T15:11:05.785Z,90177.75
2023-09-02T15:13:32.071Z,90174.91
2023-09-02T15:15:58.481Z,90179.38
2023-09-02T15:18:24.880Z,90181.22
2023-09-02T15:20:51.238Z,90183.72
2023-09-02T15:23:17.732Z,90189.59
2023-09-02T15:25:44.182Z,90187.41
2023-09-02T15:28:10.458Z,90187.31
2023-09-02T15:30:36.878Z,90191.97
2023-09-02T15:33:03.243Z,90189.69
2023-09-02T15:35:29.524Z,90183.59
2023-09-02T15:37:55.790Z,90182.44
2023-09-02T15:40:22.077Z,90174.13
2023-09-02T15:42:48.388Z,90166.69
2023-09-02T15:45:14.695Z,90171.63
2023-09-02T15:47:41.051Z,90171.06
2023-09-02T15:50:07.375Z,90173.16
2023-09-02T15:52:33.638Z,90163.97
2023-09-02T15:54:59.933Z,90176.13
2023-09-02T15:57:26.198Z,90169.88
2023-09-02T15:59:52.450Z,90162.38
2023-09-02T16:02:18.748Z,90175.44
2023-09-02T16:04:45.044Z,90174.81
2023-09-02T16:07:11.313Z,90176.38
2023-09-02T16:09:37.594Z,90173.84
2023-09-02T16:12:03.865Z,90180.13
2023-09-02T16:14:30.134Z,90187.53
2023-09-02T16:16:56.397Z,90185.47
2023-09-02T16:19:22.652Z,90184.66
2023-09-02T16:21:48.919Z,90188.94
2023-09-02T16:24:15.204Z,90190.75
2023-09-02T16:26:42.764Z,90188.09
2023-09-02T16:29:09.043Z,90194.81
2023-09-02T16:31:35.355Z,90190.41
2023-09-02T16:34:01.611Z,90198.72
2023-09-02T16:36:27.880Z,90207.88
2023-09-02T16:38:54.187Z,90213.91
2023-09-02T16:41:20.464Z,90212.88
2023-09-02T16:43:54.778Z,90210.31
2023-09-02T16:46:27.815Z,90215.91
2023-09-02T16:48:54.094Z,90219.69
2023-09-02T16:51:20.351Z,90215.28
2023-09-02T16:53:46.626Z,90211.78
2023-09-02T16:56:12.900Z,90218.41
2023-09-02T16:58:39.207Z,90221.53
2023-09-02T17:01:05.548Z,90218.53
2023-09-02T17:03:31.971Z,90228.63
2023-09-02T17:05:58.368Z,90230.56
2023-09-02T17:08:24.699Z,90235.41
2023-09-02T17:10:51.021Z,90237.25
2023-09-02T17:13:17.599Z,90244.22
2023-09-02T17:15:44.049Z,90245.59
2023-09-02T17:18:10.487Z,90251.25
2023-09-02T17:20:36.802Z,90248.41
2023-09-02T17:23:03.090Z,90256.78
2023-09-02T17:25:29.374Z,90259.41
2023-09-02T17:27:55.674Z,90257.22
2023-09-02T17:30:21.980Z,90266.13
2023-09-02T17:32:48.494Z,90268.69
2023-09-02T17:35:14.825Z,90271.97
2023-09-02T17:37:41.110Z,90277.44
2023-09-02T17:40:07.426Z,90275.47
2023-09-02T17:42:33.698Z,90277.56
2023-09-02T17:44:59.988Z,90275.84
2023-09-02T17:47:26.256Z,90278.91
2023-09-02T17:49:52.505Z,90289.84
2023-09-02T17:52:18.772Z,90289.69
2023-09-02T17:54:45.042Z,90283.63
2023-09-02T17:57:11.307Z,90293.16
2023-09-02T17:59:37.574Z,90294.97
2023-09-02T18:02:06.080Z,90289.38
2023-09-02T18:04:32.575Z,90296.16
2023-09-02T18:06:58.836Z,90294.63
2023-09-02T18:09:25.108Z,90291.16
2023-09-02T18:11:51.389Z,90299.38
2023-09-02T18:14:17.660Z,90298.81
2023-09-02T18:16:43.939Z,90303.47
2023-09-02T18:19:10.219Z,90311.53
2023-09-02T18:21:36.483Z,90321.47
2023-09-02T18:24:02.779Z,90333.44
2023-09-02T18:26:29.085Z,90332.63
2023-09-02T18:28:55.400Z,90334.09
2023-09-02T18:31:21.743Z,90329.88
2023-09-02T18:33:48.032Z,90340.84
2023-09-02T18:36:14.324Z,90346.63
2023-09-02T18:38:40.610Z,90351.19
2023-09-02T18:41:06.879Z,90350.44
2023-09-02T18:43:33.191Z,90355.59
2023-09-02T18:45:59.485Z,90356.75
2023-09-02T18:48:25.748Z,90359.44
2023-09-02T18:50:52.023Z,90372.16
2023-09-02T18:53:18.334Z,90365.84
2023-09-02T18:55:44.678Z,90366.56
2023-09-02T18:58:11.900Z,90360.03
2023-09-02T19:00:38.490Z,90363.75
2023-09-02T19:03:04.884Z,90371.56
2023-09-02T19:05:31.204Z,90371.59
2023-09-02T19:07:57.480Z,90376.34
2023-09-02T19:10:23.797Z,90379.00
2023-09-02T19:12:50.079Z,90375.41
2023-09-02T19:15:16.345Z,90381.63
2023-09-02T19:17:42.687Z,90389.19
2023-09-02T19:20:09.013Z,90393.75
2023-09-02T19:22:35.329Z,90400.16
2023-09-02T19:25:01.620Z,90406.66
2023-09-02T19:27:27.883Z,90413.63
2023-09-02T19:29:54.145Z,90427.38
2023-09-02T19:32:20.408Z,90427.84
2023-09-02T19:34:46.685Z,90425.19
2023-09-02T19:37:12.952Z,90426.22
2023-09-02T19:39:39.212Z,90424.84
2023-09-02T19:42:05.482Z,90424.78
2023-09-02T19:44:31.773Z,90421.56
2023-09-02T19:46:58.046Z,90432.22
2023-09-02T19:49:24.305Z,90424.84
2023-09-02T19:51:50.595Z,90423.97
2023-09-02T19:54:16.880Z,90424.56
2023-09-02T19:56:43.162Z,90430.56
2023-09-02T19:59:09.463Z,90433.72
2023-09-02T20:01:35.832Z,90437.44
2023-09-02T20:04:02.145Z,90436.38
2023-09-02T20:06:28.436Z,90435.03
2023-09-02T20:08:54.900Z,90440.25
2023-09-02T20:11:21.235Z,90449.13
2023-09-02T20:13:47.526Z,90447.19
2023-09-02T20:16:13.872Z,90449.22
2023-09-02T20:18:40.182Z,90452.22
2023-09-02T20:21:06.459Z,90453.19
2023-09-02T20:23:32.840Z,90453.03
2023-09-02T20:25:59.133Z,90464.28
2023-09-02T20:28:25.403Z,90455.78
2023-09-02T20:30:51.684Z,90463.41
2023-09-02T20:33:18.002Z,90458.94
2023-09-02T20:35:44.314Z,90459.69
2023-09-02T20:38:10.609Z,90458.59
2023-09-02T20:40:36.878Z,90455.97
2023-09-02T20:43:03.153Z,90447.28
2023-09-02T20:45:29.413Z,90460.91
2023-09-02T20:47:55.820Z,90454.50
2023-09-02T20:50:22.122Z,90450.44
2023-09-02T20:52:48.390Z,90454.75
2023-09-02T20:55:14.675Z,90453.88
2023-09-02T20:57:40.985Z,90462.25
2023-09-02T21:00:07.262Z,90459.28
2023-09-02T21:02:33.799Z,90448.69
2023-09-02T21:05:00.102Z,90462.69
2023-09-02T21:07:26.401Z,90453.78
2023-09-02T21:09:52.676Z,90458.16
2023-09-02T21:12:18.945Z,90454.47
2023-09-02T21:14:45.196Z,90454.88
2023-09-02T21:17:11.476Z,90455.78
2023-09-02T21:19:37.765Z,90450.84
2023-09-02T21:22:04.032Z,90453.31
2023-09-02T21:24:30.316Z,90453.41
2023-09-02T21:26:58.365Z,90450.47
2023-09-02T21:29:24.944Z,90459.69
2023-09-02T21:31:51.223Z,90453.22
2023-09-02T21:34:17.522Z,90454.84
2023-09-02T21:36:43.789Z,90455.34
2023-09-02T21:39:10.058Z,90462.19
2023-09-02T21:41:36.344Z,90473.63
2023-09-02T21:44:02.653Z,90466.00
2023-09-02T21:46:29.010Z,90469.50
2023-09-02T21:48:55.262Z,90473.69
2023-09-02T21:51:21.556Z,90480.22
2023-09-02T21:53:47.860Z,90476.69
2023-09-02T21:56:14.115Z,90471.47
2023-09-02T21:58:40.392Z,90482.34
2023-09-02T22:01:06.698Z,90478.28
2023-09-02T22:03:33.106Z,90484.59
2023-09-02T22:05:59.520Z,90489.44
2023-09-02T22:08:25.796Z,90492.28
2023-09-02T22:10:52.083Z,90491.06
2023-09-02T22:13:18.567Z,90489.03
2023-09-02T22:15:45.060Z,90502.34
2023-09-02T22:18:11.323Z,90500.63
2023-09-02T22:20:37.602Z,90503.22
2023-09-02T22:23:03.885Z,90504.97
2023-09-02T22:25:30.157Z,90497.44
2023-09-02T22:27:56.413Z,90511.41
2023-09-02T22:30:22.700Z,90514.00
2023-09-02T22:32:49.083Z,90517.41
2023-09-02T22:35:15.358Z,90520.13
2023-09-02T22:37:41.638Z,90521.97
2023-09-02T22:40:07.909Z,90528.03
2023-09-02T22:42:34.185Z,90526.19
2023-09-02T22:45:00.486Z,90524.63
2023-09-02T22:47:26.801Z,90526.56
2023-09-02T22:49:53.162Z,90524.66
2023-09-02T22:52:19.454Z,90523.63
2023-09-02T22:54:45.780Z,90522.09
2023-09-02T22:57:12.036Z,90522.66
2023-09-02T22:59:38.348Z,90514.75
2023-09-02T23:02:04.698Z,90522.25
2023-09-02T23:04:30.974Z,90528.66
2023-09-02T23:06:57.316Z,90528.38
2023-09-02T23:09:23.592Z,90528.72
2023-09-02T23:11:49.880Z,90532.38
2023-09-02T23:14:16.190Z,90538.09
2023-09-02T23:16:42.527Z,90536.72
2023-09-02T23:19:08.870Z,90542.66
2023-09-02T23:21:35.225Z,90542.09
2023-09-02T23:24:01.504Z,90538.31
2023-09-02T23:26:27.762Z,90532.41
2023-09-02T23:28:54.018Z,90543.16
2023-09-02T23:31:20.324Z,90532.22
2023-09-02T23:33:46.645Z,90526.25
2023-09-02T23:36:12.934Z,90533.41
2023-09-02T23:38:39.281Z,90538.72
2023-09-02T23:41:05.554Z,90537.00
2023-09-02T23:43:32.018Z,90533.63
2023-09-02T23:45:58.555Z,90531.59
2023-09-02T23:48:25.169Z,90535.13
2023-09-02T23:50:51.730Z,90532.66
2023-09-02T23:53:18.029Z,90531.56
2023-09-02T23:55:44.345Z,90535.25
2023-09-02T23:58:10.604Z,90540.91
